Chembulk Gibraltar — 9VFA5 — position and weather

sailwx.info

Track history (hours):
 
Tides and Currents Weather Stations Pressure Air Temp Water Temp Dewpoint Dewpoint Depression Visibility Wind Speed Wind Dir Waves Ship Positions

Chembulk Gibraltar

Last reported at 2014-Aug-11 11:12 UTC. Time now 2014-Aug-21 16:04 UTC.
Position N 29°32' W 094°54'.
Warning: this ship's position is 10 days out of date.

Length 143 m; draft 9.1 m.

Type: Ship (hazmat cat B). MMSI: 565722000.

Date/timePositionNaut miles runAvg speedWind from/ knotsBaromVisibWave heightAir tempDewpointWater temp
2014-Aug-11 11:12N 29°32' W 094°54'811.8
2014-Aug-11 10:33N 29°39' W 094°58'6 0.7
2014-Aug-11 02:10N 29°43' W 095°01'0 0.0
2014-Aug-11 01:30N 29°43' W 095°01'0 0.0
2014-Aug-11 00:33N 29°43' W 095°01'0 0.0
2014-Aug-10 23:32N 29°43' W 095°01'0 0.0
2014-Aug-10 17:32N 29°43' W 095°01'0 0.0
2014-Aug-10 16:33N 29°43' W 095°01'0 0.0
2014-Aug-10 15:33N 29°43' W 095°01'0 0.0
2014-Aug-10 14:30N 29°43' W 095°01'0 0.0
2014-Aug-10 13:33N 29°43' W 095°01'0 0.0
2014-Aug-10 12:33N 29°43' W 095°01'0 0.0
2014-Aug-10 11:33N 29°43' W 095°01'0 0.0
2014-Aug-10 10:31N 29°43' W 095°01'0 0.0
2014-Aug-10 09:33N 29°43' W 095°01'0 0.0
2014-Aug-10 08:22N 29°43' W 095°01'4 5.1
2014-Aug-10 07:33N 29°40' W 094°58'4 0.2
2014-Aug-09 14:29N 29°36' W 094°57'3 2.6
2014-Aug-09 13:12N 29°37' W 095°01'0 0.0
2014-Aug-09 12:27N 29°37' W 095°01'0 0.0
2014-Aug-09 11:18N 29°37' W 095°01'0 0.0
2014-Aug-09 10:27N 29°37' W 095°01'0 0.0
2014-Aug-09 09:27N 29°37' W 095°01'0 0.0
2014-Aug-09 08:09N 29°37' W 095°01'0 0.0
2014-Aug-09 07:30N 29°37' W 095°01'0 0.0
2014-Aug-09 06:21N 29°37' W 095°01'0 0.0
2014-Aug-09 04:21N 29°37' W 095°01'0 0.0
2014-Aug-09 03:24N 29°37' W 095°01'0 0.0
2014-Aug-09 02:15N 29°37' W 095°01'0 0.0
2014-Aug-08 14:29N 29°37' W 095°01'0 0.0
2014-Aug-08 13:29N 29°37' W 095°01'0 0.0
2014-Aug-08 12:17N 29°37' W 095°01'0 0.0
2014-Aug-08 11:17N 29°37' W 095°01'0 0.0
2014-Aug-08 09:29N 29°37' W 095°01'0 0.0
2014-Aug-08 08:32N 29°37' W 095°01'0 0.0
2014-Aug-08 07:32N 29°37' W 095°01'0 0.0
2014-Aug-08 06:32N 29°37' W 095°01'0 0.0
2014-Aug-08 05:32N 29°37' W 095°01'0 0.0
2014-Aug-08 03:29N 29°37' W 095°01'0 0.0
2014-Aug-08 02:11N 29°37' W 095°01'0 0.0
2014-Aug-08 01:26N 29°37' W 095°01'0 0.0
2014-Aug-08 00:20N 29°37' W 095°01'0 0.0
2014-Aug-07 23:20N 29°37' W 095°01'0 0.0
2014-Aug-07 22:32N 29°37' W 095°01'0 0.0
2014-Aug-07 21:17N 29°37' W 095°01'0 0.0
2014-Aug-07 20:23N 29°37' W 095°01'0 0.0
2014-Aug-07 19:32N 29°37' W 095°01'0 0.0
2014-Aug-07 18:26N 29°37' W 095°01'0 0.0
2014-Aug-07 17:23N 29°37' W 095°01'0 0.0
2014-Aug-07 15:14N 29°37' W 095°01'0 0.0
2014-Aug-07 14:23N 29°37' W 095°01'0 0.0
2014-Aug-07 11:29N 29°37' W 095°01'0 0.0
2014-Aug-07 10:29N 29°37' W 095°01'0 0.0
2014-Aug-07 09:23N 29°37' W 095°01'0 0.0
2014-Aug-07 08:29N 29°37' W 095°01'0 0.0
2014-Aug-07 07:31N 29°37' W 095°01'0 0.0
2014-Aug-07 06:31N 29°37' W 095°01'0 0.0
2014-Aug-07 05:31N 29°37' W 095°01'1 1.4
2014-Aug-07 04:33N 29°37' W 094°60'7 7.0
2014-Aug-07 03:32N 29°44' W 095°02'4 2.7
2014-Aug-07 02:06N 29°45' W 095°06'0 0.0
2014-Aug-06 23:33N 29°45' W 095°06'0 0.0
2014-Aug-06 20:33N 29°45' W 095°06'0 0.0
2014-Aug-06 19:33N 29°45' W 095°06'0 0.0
2014-Aug-06 18:33N 29°45' W 095°06'0 0.0
2014-Aug-06 17:33N 29°45' W 095°06'0 0.0
2014-Aug-06 16:27N 29°45' W 095°06'0 0.0
2014-Aug-06 13:27N 29°45' W 095°06'0 0.0
2014-Aug-06 12:33N 29°45' W 095°06'0 0.0
2014-Aug-06 11:27N 29°45' W 095°06'0 0.0
2014-Aug-06 10:14N 29°45' W 095°06'0 0.0
2014-Aug-06 09:32N 29°45' W 095°06'0 0.0
2014-Aug-06 08:32N 29°45' W 095°06'0 0.0
2014-Aug-06 07:32N 29°45' W 095°06'5 4.6
2014-Aug-06 06:33N 29°43' W 095°01'1110.8
2014-Aug-06 05:33N 29°34' W 094°55'2 0.1
2014-Aug-05 16:33N 29°35' W 094°56'1110.6
2014-Aug-05 15:33N 29°44' W 095°03'4 4.2
2014-Aug-05 14:32N 29°44' W 095°08'0 0.0
2014-Aug-05 13:32N 29°44' W 095°08'0 0.0
2014-Aug-05 12:29N 29°44' W 095°08'0 0.0
2014-Aug-05 11:32N 29°44' W 095°08'0 0.0
2014-Aug-05 10:31N 29°44' W 095°08'0 0.0
2014-Aug-05 09:28N 29°44' W 095°08'0 0.0
2014-Aug-05 08:31N 29°44' W 095°08'0 0.0
2014-Aug-05 07:31N 29°44' W 095°08'0 0.0
2014-Aug-05 06:31N 29°44' W 095°08'0 0.0
2014-Aug-05 05:31N 29°44' W 095°08'0 0.0
2014-Aug-05 04:31N 29°44' W 095°08'0 0.0
2014-Aug-05 03:31N 29°44' W 095°08'0 0.0
2014-Aug-05 02:31N 29°44' W 095°08'0 0.0
2014-Aug-05 01:25N 29°44' W 095°08'0 0.0
2014-Aug-05 00:31N 29°44' W 095°08'0 0.0
2014-Aug-04 23:31N 29°44' W 095°08'0 0.0
2014-Aug-04 22:31N 29°44' W 095°08'0 0.0
2014-Aug-04 21:31N 29°44' W 095°08'0 0.0
2014-Aug-04 20:28N 29°44' W 095°08'0 0.0
2014-Aug-04 19:31N 29°44' W 095°08'0 0.0
2014-Aug-04 18:31N 29°44' W 095°08'0 0.0
2014-Aug-04 17:31N 29°44' W 095°08'0 0.0
2014-Aug-04 16:31N 29°44' W 095°08'4 4.3
2014-Aug-04 15:33N 29°44' W 095°03'9 8.9
2014-Aug-04 14:34N 29°37' W 094°57'2 0.2
2014-Aug-04 02:33N 29°35' W 094°56'5 5.0
2014-Aug-04 01:32N 29°37' W 095°01'8 0.6
2014-Aug-03 11:32N 29°32' W 094°54'  
Track history (hours):
 
Tides and Currents Weather Stations Pressure Air Temp Water Temp Dewpoint Dewpoint Depression Visibility Wind Speed Wind Dir Waves Ship Positions

Chembulk Gibraltar

Last reported at 2014-Aug-11 11:12 UTC. Time now 2014-Aug-21 16:04 UTC.
Position N 29°32' W 094°54'.
Warning: this ship's position is 10 days out of date.

Length 143 m; draft 9.1 m.

Type: Ship (hazmat cat B). MMSI: 565722000.

Date/timePositionNaut miles runAvg speedWind from/ knotsBaromVisibWave heightAir tempDewpointWater temp
2014-Aug-11 11:12N 29°32' W 094°54'811.8
2014-Aug-11 10:33N 29°39' W 094°58'6 0.7
2014-Aug-11 02:10N 29°43' W 095°01'0 0.0
2014-Aug-11 01:30N 29°43' W 095°01'0 0.0
2014-Aug-11 00:33N 29°43' W 095°01'0 0.0
2014-Aug-10 23:32N 29°43' W 095°01'0 0.0
2014-Aug-10 17:32N 29°43' W 095°01'0 0.0
2014-Aug-10 16:33N 29°43' W 095°01'0 0.0
2014-Aug-10 15:33N 29°43' W 095°01'0 0.0
2014-Aug-10 14:30N 29°43' W 095°01'0 0.0
2014-Aug-10 13:33N 29°43' W 095°01'0 0.0
2014-Aug-10 12:33N 29°43' W 095°01'0 0.0
2014-Aug-10 11:33N 29°43' W 095°01'0 0.0
2014-Aug-10 10:31N 29°43' W 095°01'0 0.0
2014-Aug-10 09:33N 29°43' W 095°01'0 0.0
2014-Aug-10 08:22N 29°43' W 095°01'4 5.1
2014-Aug-10 07:33N 29°40' W 094°58'4 0.2
2014-Aug-09 14:29N 29°36' W 094°57'3 2.6
2014-Aug-09 13:12N 29°37' W 095°01'0 0.0
2014-Aug-09 12:27N 29°37' W 095°01'0 0.0
2014-Aug-09 11:18N 29°37' W 095°01'0 0.0
2014-Aug-09 10:27N 29°37' W 095°01'0 0.0
2014-Aug-09 09:27N 29°37' W 095°01'0 0.0
2014-Aug-09 08:09N 29°37' W 095°01'0 0.0
2014-Aug-09 07:30N 29°37' W 095°01'0 0.0
2014-Aug-09 06:21N 29°37' W 095°01'0 0.0
2014-Aug-09 04:21N 29°37' W 095°01'0 0.0
2014-Aug-09 03:24N 29°37' W 095°01'0 0.0
2014-Aug-09 02:15N 29°37' W 095°01'0 0.0
2014-Aug-08 14:29N 29°37' W 095°01'0 0.0
2014-Aug-08 13:29N 29°37' W 095°01'0 0.0
2014-Aug-08 12:17N 29°37' W 095°01'0 0.0
2014-Aug-08 11:17N 29°37' W 095°01'0 0.0
2014-Aug-08 09:29N 29°37' W 095°01'0 0.0
2014-Aug-08 08:32N 29°37' W 095°01'0 0.0
2014-Aug-08 07:32N 29°37' W 095°01'0 0.0
2014-Aug-08 06:32N 29°37' W 095°01'0 0.0
2014-Aug-08 05:32N 29°37' W 095°01'0 0.0
2014-Aug-08 03:29N 29°37' W 095°01'0 0.0
2014-Aug-08 02:11N 29°37' W 095°01'0 0.0
2014-Aug-08 01:26N 29°37' W 095°01'0 0.0
2014-Aug-08 00:20N 29°37' W 095°01'0 0.0
2014-Aug-07 23:20N 29°37' W 095°01'0 0.0
2014-Aug-07 22:32N 29°37' W 095°01'0 0.0
2014-Aug-07 21:17N 29°37' W 095°01'0 0.0
2014-Aug-07 20:23N 29°37' W 095°01'0 0.0
2014-Aug-07 19:32N 29°37' W 095°01'0 0.0
2014-Aug-07 18:26N 29°37' W 095°01'0 0.0
2014-Aug-07 17:23N 29°37' W 095°01'0 0.0
2014-Aug-07 15:14N 29°37' W 095°01'0 0.0
2014-Aug-07 14:23N 29°37' W 095°01'0 0.0
2014-Aug-07 11:29N 29°37' W 095°01'0 0.0
2014-Aug-07 10:29N 29°37' W 095°01'0 0.0
2014-Aug-07 09:23N 29°37' W 095°01'0 0.0
2014-Aug-07 08:29N 29°37' W 095°01'0 0.0
2014-Aug-07 07:31N 29°37' W 095°01'0 0.0
2014-Aug-07 06:31N 29°37' W 095°01'0 0.0
2014-Aug-07 05:31N 29°37' W 095°01'1 1.4
2014-Aug-07 04:33N 29°37' W 094°60'7 7.0
2014-Aug-07 03:32N 29°44' W 095°02'4 2.7
2014-Aug-07 02:06N 29°45' W 095°06'0 0.0
2014-Aug-06 23:33N 29°45' W 095°06'0 0.0
2014-Aug-06 20:33N 29°45' W 095°06'0 0.0
2014-Aug-06 19:33N 29°45' W 095°06'0 0.0
2014-Aug-06 18:33N 29°45' W 095°06'0 0.0
2014-Aug-06 17:33N 29°45' W 095°06'0 0.0
2014-Aug-06 16:27N 29°45' W 095°06'0 0.0
2014-Aug-06 13:27N 29°45' W 095°06'0 0.0
2014-Aug-06 12:33N 29°45' W 095°06'0 0.0
2014-Aug-06 11:27N 29°45' W 095°06'0 0.0
2014-Aug-06 10:14N 29°45' W 095°06'0 0.0
2014-Aug-06 09:32N 29°45' W 095°06'0 0.0
2014-Aug-06 08:32N 29°45' W 095°06'0 0.0
2014-Aug-06 07:32N 29°45' W 095°06'5 4.6
2014-Aug-06 06:33N 29°43' W 095°01'1110.8
2014-Aug-06 05:33N 29°34' W 094°55'2 0.1
2014-Aug-05 16:33N 29°35' W 094°56'1110.6
2014-Aug-05 15:33N 29°44' W 095°03'4 4.2
2014-Aug-05 14:32N 29°44' W 095°08'0 0.0
2014-Aug-05 13:32N 29°44' W 095°08'0 0.0
2014-Aug-05 12:29N 29°44' W 095°08'0 0.0
2014-Aug-05 11:32N 29°44' W 095°08'0 0.0
2014-Aug-05 10:31N 29°44' W 095°08'0 0.0
2014-Aug-05 09:28N 29°44' W 095°08'0 0.0
2014-Aug-05 08:31N 29°44' W 095°08'0 0.0
2014-Aug-05 07:31N 29°44' W 095°08'0 0.0
2014-Aug-05 06:31N 29°44' W 095°08'0 0.0
2014-Aug-05 05:31N 29°44' W 095°08'0 0.0
2014-Aug-05 04:31N 29°44' W 095°08'0 0.0
2014-Aug-05 03:31N 29°44' W 095°08'0 0.0
2014-Aug-05 02:31N 29°44' W 095°08'0 0.0
2014-Aug-05 01:25N 29°44' W 095°08'0 0.0
2014-Aug-05 00:31N 29°44' W 095°08'0 0.0
2014-Aug-04 23:31N 29°44' W 095°08'0 0.0
2014-Aug-04 22:31N 29°44' W 095°08'0 0.0
2014-Aug-04 21:31N 29°44' W 095°08'0 0.0
2014-Aug-04 20:28N 29°44' W 095°08'0 0.0
2014-Aug-04 19:31N 29°44' W 095°08'0 0.0
2014-Aug-04 18:31N 29°44' W 095°08'0 0.0
2014-Aug-04 17:31N 29°44' W 095°08'0 0.0
2014-Aug-04 16:31N 29°44' W 095°08'4 4.3
2014-Aug-04 15:33N 29°44' W 095°03'9 8.9
2014-Aug-04 14:34N 29°37' W 094°57'2 0.2
2014-Aug-04 02:33N 29°35' W 094°56'5 5.0
2014-Aug-04 01:32N 29°37' W 095°01'8 0.6
2014-Aug-03 11:32N 29°32' W 094°54'  

Dump ship's entire track history